sensor_id;sensor_type;location;lat;lon;timestamp;temperature;humidity
15364;DHT22;7781;49.690;6.472;2022-09-17T00:01:27;8.50;99.90
15364;DHT22;7781;49.690;6.472;2022-09-17T00:03:58;8.50;99.90
15364;DHT22;7781;49.690;6.472;2022-09-17T00:06:30;8.60;99.90
15364;DHT22;7781;49.690;6.472;2022-09-17T00:08:59;8.60;99.90
15364;DHT22;7781;49.690;6.472;2022-09-17T00:11:28;8.60;99.90
15364;DHT22;7781;49.690;6.472;2022-09-17T00:13:58;8.60;99.90
15364;DHT22;7781;49.690;6.472;2022-09-17T00:16:28;8.80;99.90
15364;DHT22;7781;49.690;6.472;2022-09-17T00:18:59;8.80;99.90
15364;DHT22;7781;49.690;6.472;2022-09-17T00:21:27;8.80;99.90
15364;DHT22;7781;49.690;6.472;2022-09-17T00:23:57;8.70;99.90
15364;DHT22;7781;49.690;6.472;2022-09-17T00:26:26;8.50;99.90
15364;DHT22;7781;49.690;6.472;2022-09-17T00:28:56;8.40;99.90
15364;DHT22;7781;49.690;6.472;2022-09-17T00:31:25;8.30;99.90
15364;DHT22;7781;49.690;6.472;2022-09-17T00:33:54;8.20;99.90
15364;DHT22;7781;49.690;6.472;2022-09-17T00:36:23;8.10;99.90
15364;DHT22;7781;49.690;6.472;2022-09-17T00:38:52;8.10;99.90
15364;DHT22;7781;49.690;6.472;2022-09-17T00:41:22;8.20;99.90
15364;DHT22;7781;49.690;6.472;2022-09-17T00:43:52;8.20;99.90
15364;DHT22;7781;49.690;6.472;2022-09-17T00:46:25;8.10;99.90
15364;DHT22;7781;49.690;6.472;2022-09-17T00:48:57;8.00;99.90
15364;DHT22;7781;49.690;6.472;2022-09-17T00:51:30;8.00;99.90
15364;DHT22;7781;49.690;6.472;2022-09-17T00:54:00;7.90;99.90
15364;DHT22;7781;49.690;6.472;2022-09-17T00:56:32;7.90;99.90
15364;DHT22;7781;49.690;6.472;2022-09-17T00:59:01;7.80;99.90
15364;DHT22;7781;49.690;6.472;2022-09-17T01:01:30;7.80;99.90
15364;DHT22;7781;49.690;6.472;2022-09-17T01:03:59;7.70;99.90
15364;DHT22;7781;49.690;6.472;2022-09-17T01:06:33;7.70;99.90
15364;DHT22;7781;49.690;6.472;2022-09-17T01:09:12;7.80;99.90
15364;DHT22;7781;49.690;6.472;2022-09-17T01:12:03;7.90;99.90
15364;DHT22;7781;49.690;6.472;2022-09-17T01:14:43;7.90;99.90
15364;DHT22;7781;49.690;6.472;2022-09-17T01:17:19;7.90;99.90
15364;DHT22;7781;49.690;6.472;2022-09-17T01:23:04;8.10;99.90
15364;DHT22;7781;49.690;6.472;2022-09-17T01:25:42;8.10;99.90
15364;DHT22;7781;49.690;6.472;2022-09-17T01:28:29;8.00;99.90
15364;DHT22;7781;49.690;6.472;2022-09-17T01:31:20;8.00;99.90
15364;DHT22;7781;49.690;6.472;2022-09-17T01:33:57;8.00;99.90
15364;DHT22;7781;49.690;6.472;2022-09-17T01:36:39;8.00;99.90
15364;DHT22;7781;49.690;6.472;2022-09-17T01:39:16;8.00;99.90
15364;DHT22;7781;49.690;6.472;2022-09-17T01:41:51;8.00;99.90
15364;DHT22;7781;49.690;6.472;2022-09-17T01:44:24;8.00;99.90
15364;DHT22;7781;49.690;6.472;2022-09-17T01:47:00;8.10;99.90
15364;DHT22;7781;49.690;6.472;2022-09-17T01:49:30;8.20;99.90
15364;DHT22;7781;49.690;6.472;2022-09-17T01:52:00;8.30;99.90
15364;DHT22;7781;49.690;6.472;2022-09-17T01:54:30;8.40;99.90
15364;DHT22;7781;49.690;6.472;2022-09-17T01:57:08;8.40;99.90
15364;DHT22;7781;49.690;6.472;2022-09-17T01:59:42;8.40;99.90
15364;DHT22;7781;49.690;6.472;2022-09-17T02:02:15;8.40;99.90
15364;DHT22;7781;49.690;6.472;2022-09-17T02:04:50;8.30;99.90
15364;DHT22;7781;49.690;6.472;2022-09-17T02:07:22;8.40;99.90
15364;DHT22;7781;49.690;6.472;2022-09-17T02:09:56;8.40;99.90
15364;DHT22;7781;49.690;6.472;2022-09-17T02:12:29;8.40;99.90
15364;DHT22;7781;49.690;6.472;2022-09-17T02:15:02;8.40;99.90
15364;DHT22;7781;49.690;6.472;2022-09-17T02:17:38;8.40;99.90
15364;DHT22;7781;49.690;6.472;2022-09-17T02:20:09;8.40;99.90
15364;DHT22;7781;49.690;6.472;2022-09-17T02:22:41;8.40;99.90
15364;DHT22;7781;49.690;6.472;2022-09-17T02:25:15;8.60;99.90
15364;DHT22;7781;49.690;6.472;2022-09-17T02:27:50;8.60;99.90
15364;DHT22;7781;49.690;6.472;2022-09-17T02:30:19;8.70;99.90
15364;DHT22;7781;49.690;6.472;2022-09-17T02:32:48;8.70;99.90
15364;DHT22;7781;49.690;6.472;2022-09-17T02:35:17;8.70;99.90
15364;DHT22;7781;49.690;6.472;2022-09-17T02:37:45;8.80;99.90
15364;DHT22;7781;49.690;6.472;2022-09-17T02:40:15;8.80;99.90
15364;DHT22;7781;49.690;6.472;2022-09-17T02:42:57;8.80;99.90
15364;DHT22;7781;49.690;6.472;2022-09-17T02:45:35;8.80;99.90
15364;DHT22;7781;49.690;6.472;2022-09-17T02:51:13;8.90;99.90
15364;DHT22;7781;49.690;6.472;2022-09-17T02:53:47;8.90;99.90
15364;DHT22;7781;49.690;6.472;2022-09-17T02:56:29;8.90;99.90
15364;DHT22;7781;49.690;6.472;2022-09-17T02:59:05;8.90;99.90
15364;DHT22;7781;49.690;6.472;2022-09-17T03:01:39;8.90;99.90
15364;DHT22;7781;49.690;6.472;2022-09-17T03:04:14;8.90;99.90
15364;DHT22;7781;49.690;6.472;2022-09-17T03:06:45;8.90;99.90
15364;DHT22;7781;49.690;6.472;2022-09-17T03:09:14;8.90;99.90
15364;DHT22;7781;49.690;6.472;2022-09-17T03:11:42;8.90;99.90
15364;DHT22;7781;49.690;6.472;2022-09-17T03:14:10;9.00;99.90
15364;DHT22;7781;49.690;6.472;2022-09-17T03:16:38;9.00;99.90
15364;DHT22;7781;49.690;6.472;2022-09-17T03:19:06;9.00;99.90
15364;DHT22;7781;49.690;6.472;2022-09-17T03:21:35;9.00;99.90
15364;DHT22;7781;49.690;6.472;2022-09-17T03:24:03;9.00;99.90
15364;DHT22;7781;49.690;6.472;2022-09-17T03:26:31;9.00;99.90
15364;DHT22;7781;49.690;6.472;2022-09-17T03:28:59;9.00;99.90
15364;DHT22;7781;49.690;6.472;2022-09-17T03:31:27;9.10;99.90
15364;DHT22;7781;49.690;6.472;2022-09-17T03:33:56;9.10;99.90
15364;DHT22;7781;49.690;6.472;2022-09-17T03:36:24;9.20;99.90
15364;DHT22;7781;49.690;6.472;2022-09-17T03:38:54;9.20;99.90
15364;DHT22;7781;49.690;6.472;2022-09-17T03:41:23;9.20;99.90
15364;DHT22;7781;49.690;6.472;2022-09-17T03:43:51;9.20;99.90
15364;DHT22;7781;49.690;6.472;2022-09-17T03:46:19;9.20;99.90
15364;DHT22;7781;49.690;6.472;2022-09-17T03:48:47;9.20;99.90
15364;DHT22;7781;49.690;6.472;2022-09-17T03:51:15;9.30;99.90
15364;DHT22;7781;49.690;6.472;2022-09-17T03:53:44;9.30;99.90
15364;DHT22;7781;49.690;6.472;2022-09-17T03:56:13;9.30;99.90
15364;DHT22;7781;49.690;6.472;2022-09-17T03:58:41;9.30;99.90
15364;DHT22;7781;49.690;6.472;2022-09-17T04:01:09;9.30;99.90
15364;DHT22;7781;49.690;6.472;2022-09-17T04:03:38;9.30;99.90
15364;DHT22;7781;49.690;6.472;2022-09-17T04:06:06;9.30;99.90
15364;DHT22;7781;49.690;6.472;2022-09-17T04:08:34;9.30;99.90
15364;DHT22;7781;49.690;6.472;2022-09-17T04:11:02;9.30;99.90
15364;DHT22;7781;49.690;6.472;2022-09-17T04:13:32;9.30;99.90
15364;DHT22;7781;49.690;6.472;2022-09-17T04:16:00;9.30;99.90
15364;DHT22;7781;49.690;6.472;2022-09-17T04:18:28;9.40;99.90
15364;DHT22;7781;49.690;6.472;2022-09-17T04:20:56;9.30;99.90
15364;DHT22;7781;49.690;6.472;2022-09-17T04:23:24;9.40;99.90
15364;DHT22;7781;49.690;6.472;2022-09-17T04:25:52;9.40;99.90
15364;DHT22;7781;49.690;6.472;2022-09-17T04:28:20;9.40;99.90
15364;DHT22;7781;49.690;6.472;2022-09-17T04:30:50;9.40;99.90
15364;DHT22;7781;49.690;6.472;2022-09-17T04:33:18;9.40;99.90
15364;DHT22;7781;49.690;6.472;2022-09-17T04:35:46;9.40;99.90
15364;DHT22;7781;49.690;6.472;2022-09-17T04:38:14;9.50;99.90
15364;DHT22;7781;49.690;6.472;2022-09-17T04:40:44;9.50;99.90
15364;DHT22;7781;49.690;6.472;2022-09-17T04:43:13;9.50;99.90
15364;DHT22;7781;49.690;6.472;2022-09-17T04:45:44;9.50;99.90
15364;DHT22;7781;49.690;6.472;2022-09-17T04:48:14;9.50;99.90
15364;DHT22;7781;49.690;6.472;2022-09-17T04:50:42;9.50;99.90
15364;DHT22;7781;49.690;6.472;2022-09-17T04:53:10;9.50;99.90
15364;DHT22;7781;49.690;6.472;2022-09-17T04:55:38;9.50;99.90
15364;DHT22;7781;49.690;6.472;2022-09-17T04:58:06;9.50;99.90
15364;DHT22;7781;49.690;6.472;2022-09-17T05:00:34;9.50;99.90
15364;DHT22;7781;49.690;6.472;2022-09-17T05:03:02;9.50;99.90
15364;DHT22;7781;49.690;6.472;2022-09-17T05:05:32;9.50;99.90
15364;DHT22;7781;49.690;6.472;2022-09-17T05:08:00;9.50;99.90
15364;DHT22;7781;49.690;6.472;2022-09-17T05:10:28;9.50;99.90
15364;DHT22;7781;49.690;6.472;2022-09-17T05:12:56;9.60;99.90
15364;DHT22;7781;49.690;6.472;2022-09-17T05:15:25;9.60;99.90
15364;DHT22;7781;49.690;6.472;2022-09-17T05:17:53;9.70;99.90
15364;DHT22;7781;49.690;6.472;2022-09-17T05:20:21;9.70;99.90
15364;DHT22;7781;49.690;6.472;2022-09-17T05:22:51;9.70;99.90
15364;DHT22;7781;49.690;6.472;2022-09-17T05:25:20;9.70;99.90
15364;DHT22;7781;49.690;6.472;2022-09-17T05:27:51;9.70;99.90
15364;DHT22;7781;49.690;6.472;2022-09-17T05:30:19;9.70;99.90
15364;DHT22;7781;49.690;6.472;2022-09-17T05:32:47;9.70;99.90
15364;DHT22;7781;49.690;6.472;2022-09-17T05:35:16;9.70;99.90
15364;DHT22;7781;49.690;6.472;2022-09-17T05:37:44;9.80;99.90
15364;DHT22;7781;49.690;6.472;2022-09-17T05:40:13;9.80;99.90
15364;DHT22;7781;49.690;6.472;2022-09-17T05:42:42;9.80;99.90
15364;DHT22;7781;49.690;6.472;2022-09-17T05:45:10;9.80;99.90
15364;DHT22;7781;49.690;6.472;2022-09-17T05:47:38;9.90;99.90
15364;DHT22;7781;49.690;6.472;2022-09-17T05:50:07;9.90;99.90
15364;DHT22;7781;49.690;6.472;2022-09-17T05:52:35;10.00;99.90
15364;DHT22;7781;49.690;6.472;2022-09-17T05:55:03;10.00;99.90
15364;DHT22;7781;49.690;6.472;2022-09-17T05:57:33;10.10;99.90
15364;DHT22;7781;49.690;6.472;2022-09-17T06:00:02;10.10;99.90
15364;DHT22;7781;49.690;6.472;2022-09-17T06:02:38;10.10;99.90
15364;DHT22;7781;49.690;6.472;2022-09-17T06:05:07;10.00;99.90
15364;DHT22;7781;49.690;6.472;2022-09-17T06:07:35;10.00;99.90
15364;DHT22;7781;49.690;6.472;2022-09-17T06:10:04;9.90;99.90
15364;DHT22;7781;49.690;6.472;2022-09-17T06:12:35;9.90;99.90
15364;DHT22;7781;49.690;6.472;2022-09-17T06:15:03;9.90;99.90
15364;DHT22;7781;49.690;6.472;2022-09-17T06:17:32;9.90;99.90
15364;DHT22;7781;49.690;6.472;2022-09-17T06:20:02;9.90;99.90
15364;DHT22;7781;49.690;6.472;2022-09-17T06:22:31;9.90;99.90
15364;DHT22;7781;49.690;6.472;2022-09-17T06:24:59;10.00;99.90
15364;DHT22;7781;49.690;6.472;2022-09-17T06:27:30;10.10;99.90
15364;DHT22;7781;49.690;6.472;2022-09-17T06:30:00;10.10;99.90
15364;DHT22;7781;49.690;6.472;2022-09-17T06:32:28;10.10;99.90
15364;DHT22;7781;49.690;6.472;2022-09-17T06:34:56;10.10;99.90
15364;DHT22;7781;49.690;6.472;2022-09-17T06:37:26;10.10;99.90
15364;DHT22;7781;49.690;6.472;2022-09-17T06:39:54;10.10;99.90
15364;DHT22;7781;49.690;6.472;2022-09-17T06:42:22;10.10;99.90
15364;DHT22;7781;49.690;6.472;2022-09-17T06:44:50;10.10;99.90
15364;DHT22;7781;49.690;6.472;2022-09-17T06:47:22;10.00;99.90
15364;DHT22;7781;49.690;6.472;2022-09-17T06:49:50;10.10;99.90
15364;DHT22;7781;49.690;6.472;2022-09-17T06:52:18;10.10;99.90
15364;DHT22;7781;49.690;6.472;2022-09-17T06:54:46;10.20;99.90
15364;DHT22;7781;49.690;6.472;2022-09-17T06:57:14;10.30;99.90
15364;DHT22;7781;49.690;6.472;2022-09-17T06:59:42;10.60;99.90
15364;DHT22;7781;49.690;6.472;2022-09-17T07:02:10;11.10;99.90
15364;DHT22;7781;49.690;6.472;2022-09-17T07:04:40;11.60;99.90
15364;DHT22;7781;49.690;6.472;2022-09-17T07:07:08;12.10;99.90
15364;DHT22;7781;49.690;6.472;2022-09-17T07:09:36;12.50;99.90
15364;DHT22;7781;49.690;6.472;2022-09-17T07:12:07;12.80;99.90
15364;DHT22;7781;49.690;6.472;2022-09-17T07:14:35;13.30;99.90
15364;DHT22;7781;49.690;6.472;2022-09-17T07:17:03;13.40;99.90
15364;DHT22;7781;49.690;6.472;2022-09-17T07:19:33;13.30;95.20
15364;DHT22;7781;49.690;6.472;2022-09-17T07:22:02;13.40;93.70
15364;DHT22;7781;49.690;6.472;2022-09-17T07:24:30;13.50;78.00
15364;DHT22;7781;49.690;6.472;2022-09-17T07:26:58;13.70;78.60
15364;DHT22;7781;49.690;6.472;2022-09-17T07:29:27;14.00;65.10
15364;DHT22;7781;49.690;6.472;2022-09-17T07:31:56;14.40;62.20
15364;DHT22;7781;49.690;6.472;2022-09-17T07:34:25;14.70;49.70
15364;DHT22;7781;49.690;6.472;2022-09-17T07:36:54;14.60;32.90
15364;DHT22;7781;49.690;6.472;2022-09-17T07:39:24;14.30;34.30
15364;DHT22;7781;49.690;6.472;2022-09-17T07:41:52;14.00;44.10
15364;DHT22;7781;49.690;6.472;2022-09-17T07:44:20;13.70;39.00
15364;DHT22;7781;49.690;6.472;2022-09-17T07:46:48;13.40;44.10
15364;DHT22;7781;49.690;6.472;2022-09-17T07:49:16;13.20;55.30
15364;DHT22;7781;49.690;6.472;2022-09-17T07:51:44;13.10;59.70
15364;DHT22;7781;49.690;6.472;2022-09-17T07:54:12;13.00;58.80
15364;DHT22;7781;49.690;6.472;2022-09-17T07:56:41;13.10;60.10
15364;DHT22;7781;49.690;6.472;2022-09-17T07:59:10;13.00;58.60
15364;DHT22;7781;49.690;6.472;2022-09-17T08:01:38;13.10;55.40
15364;DHT22;7781;49.690;6.472;2022-09-17T08:04:07;13.20;53.90
15364;DHT22;7781;49.690;6.472;2022-09-17T08:06:36;13.10;55.70
15364;DHT22;7781;49.690;6.472;2022-09-17T08:09:06;13.10;55.30
15364;DHT22;7781;49.690;6.472;2022-09-17T08:11:35;13.20;60.70
15364;DHT22;7781;49.690;6.472;2022-09-17T08:14:23;13.20;57.90
15364;DHT22;7781;49.690;6.472;2022-09-17T08:16:55;13.20;53.50
15364;DHT22;7781;49.690;6.472;2022-09-17T08:19:24;13.10;48.40
15364;DHT22;7781;49.690;6.472;2022-09-17T08:21:52;13.20;51.50
15364;DHT22;7781;49.690;6.472;2022-09-17T08:24:20;13.30;53.00
15364;DHT22;7781;49.690;6.472;2022-09-17T08:26:47;13.30;50.50
15364;DHT22;7781;49.690;6.472;2022-09-17T08:29:15;13.20;33.60
15364;DHT22;7781;49.690;6.472;2022-09-17T08:31:45;13.20;35.70
15364;DHT22;7781;49.690;6.472;2022-09-17T08:34:13;13.10;37.90
15364;DHT22;7781;49.690;6.472;2022-09-17T08:36:41;13.10;37.70
15364;DHT22;7781;49.690;6.472;2022-09-17T08:39:09;13.10;35.30
15364;DHT22;7781;49.690;6.472;2022-09-17T08:41:54;13.10;35.70
15364;DHT22;7781;49.690;6.472;2022-09-17T08:44:32;13.00;34.10
15364;DHT22;7781;49.690;6.472;2022-09-17T08:47:13;13.00;40.30
15364;DHT22;7781;49.690;6.472;2022-09-17T08:49:47;13.00;40.70
15364;DHT22;7781;49.690;6.472;2022-09-17T08:52:55;12.90;42.70
15364;DHT22;7781;49.690;6.472;2022-09-17T08:55:33;12.90;49.10
15364;DHT22;7781;49.690;6.472;2022-09-17T08:58:28;12.90;49.80
15364;DHT22;7781;49.690;6.472;2022-09-17T09:01:06;12.90;44.90
15364;DHT22;7781;49.690;6.472;2022-09-17T09:03:48;12.90;46.70
15364;DHT22;7781;49.690;6.472;2022-09-17T09:06:25;13.00;43.70
15364;DHT22;7781;49.690;6.472;2022-09-17T09:08:58;13.10;41.80
15364;DHT22;7781;49.690;6.472;2022-09-17T09:11:28;13.20;37.70
15364;DHT22;7781;49.690;6.472;2022-09-17T09:14:04;13.30;39.20
15364;DHT22;7781;49.690;6.472;2022-09-17T09:16:38;13.50;38.20
15364;DHT22;7781;49.690;6.472;2022-09-17T09:19:20;13.70;34.90
15364;DHT22;7781;49.690;6.472;2022-09-17T09:21:59;13.90;33.70
15364;DHT22;7781;49.690;6.472;2022-09-17T09:24:36;13.90;32.10
15364;DHT22;7781;49.690;6.472;2022-09-17T09:27:15;13.80;29.40
15364;DHT22;7781;49.690;6.472;2022-09-17T09:29:55;13.70;31.10
15364;DHT22;7781;49.690;6.472;2022-09-17T09:32:40;13.70;29.30
15364;DHT22;7781;49.690;6.472;2022-09-17T09:35:16;13.70;32.70
15364;DHT22;7781;49.690;6.472;2022-09-17T09:37:51;13.70;31.00
15364;DHT22;7781;49.690;6.472;2022-09-17T09:40:35;13.70;30.80
15364;DHT22;7781;49.690;6.472;2022-09-17T09:43:13;13.70;29.60
15364;DHT22;7781;49.690;6.472;2022-09-17T09:46:02;13.70;29.20
15364;DHT22;7781;49.690;6.472;2022-09-17T09:48:37;13.80;28.20
15364;DHT22;7781;49.690;6.472;2022-09-17T09:51:24;13.80;29.60
15364;DHT22;7781;49.690;6.472;2022-09-17T09:54:09;13.90;28.00
15364;DHT22;7781;49.690;6.472;2022-09-17T09:56:55;14.00;24.40
15364;DHT22;7781;49.690;6.472;2022-09-17T09:59:24;13.90;17.80
15364;DHT22;7781;49.690;6.472;2022-09-17T10:01:52;13.90;16.60
15364;DHT22;7781;49.690;6.472;2022-09-17T10:04:22;14.00;18.90
15364;DHT22;7781;49.690;6.472;2022-09-17T10:06:54;14.20;17.10
15364;DHT22;7781;49.690;6.472;2022-09-17T10:09:26;14.20;14.00
15364;DHT22;7781;49.690;6.472;2022-09-17T10:12:00;14.30;9.10
15364;DHT22;7781;49.690;6.472;2022-09-17T10:14:29;14.30;5.50
15364;DHT22;7781;49.690;6.472;2022-09-17T10:17:14;14.30;7.60
15364;DHT22;7781;49.690;6.472;2022-09-17T10:19:43;14.40;4.20
15364;DHT22;7781;49.690;6.472;2022-09-17T10:22:23;14.60;2.20
15364;DHT22;7781;49.690;6.472;2022-09-17T10:24:54;14.90;1.00
15364;DHT22;7781;49.690;6.472;2022-09-17T10:27:23;14.90;1.00
15364;DHT22;7781;49.690;6.472;2022-09-17T10:30:00;14.90;1.00
15364;DHT22;7781;49.690;6.472;2022-09-17T10:32:29;14.90;1.00
15364;DHT22;7781;49.690;6.472;2022-09-17T10:34:59;15.00;1.00
15364;DHT22;7781;49.690;6.472;2022-09-17T10:37:41;15.20;1.00
15364;DHT22;7781;49.690;6.472;2022-09-17T10:40:27;15.20;1.00
15364;DHT22;7781;49.690;6.472;2022-09-17T10:43:18;15.40;1.00
15364;DHT22;7781;49.690;6.472;2022-09-17T10:45:57;15.30;1.00
15364;DHT22;7781;49.690;6.472;2022-09-17T10:48:28;15.30;1.00
15364;DHT22;7781;49.690;6.472;2022-09-17T10:50:58;15.40;1.00
15364;DHT22;7781;49.690;6.472;2022-09-17T10:53:30;15.60;1.00
15364;DHT22;7781;49.690;6.472;2022-09-17T10:56:08;15.80;1.00
15364;DHT22;7781;49.690;6.472;2022-09-17T10:58:47;15.90;1.00
15364;DHT22;7781;49.690;6.472;2022-09-17T11:01:46;15.90;1.00
15364;DHT22;7781;49.690;6.472;2022-09-17T11:04:31;15.90;1.00
15364;DHT22;7781;49.690;6.472;2022-09-17T11:07:21;15.60;1.00
15364;DHT22;7781;49.690;6.472;2022-09-17T11:09:59;15.60;1.00
15364;DHT22;7781;49.690;6.472;2022-09-17T11:12:38;15.40;1.00
15364;DHT22;7781;49.690;6.472;2022-09-17T11:15:25;15.30;1.00
15364;DHT22;7781;49.690;6.472;2022-09-17T11:18:18;15.40;1.00
15364;DHT22;7781;49.690;6.472;2022-09-17T11:21:02;15.60;1.00
15364;DHT22;7781;49.690;6.472;2022-09-17T11:23:50;15.80;1.00
15364;DHT22;7781;49.690;6.472;2022-09-17T11:26:31;15.90;1.00
15364;DHT22;7781;49.690;6.472;2022-09-17T11:29:11;15.90;1.00
15364;DHT22;7781;49.690;6.472;2022-09-17T11:31:48;16.00;1.00
15364;DHT22;7781;49.690;6.472;2022-09-17T11:34:28;15.80;1.00
15364;DHT22;7781;49.690;6.472;2022-09-17T11:37:03;15.60;1.00
15364;DHT22;7781;49.690;6.472;2022-09-17T11:39:38;15.60;1.00
15364;DHT22;7781;49.690;6.472;2022-09-17T11:42:11;15.80;1.00
15364;DHT22;7781;49.690;6.472;2022-09-17T11:44:45;16.00;1.00
15364;DHT22;7781;49.690;6.472;2022-09-17T11:47:18;16.10;1.00
15364;DHT22;7781;49.690;6.472;2022-09-17T11:49:50;16.40;1.00
15364;DHT22;7781;49.690;6.472;2022-09-17T11:52:23;16.40;1.00
15364;DHT22;7781;49.690;6.472;2022-09-17T11:54:56;16.60;1.00
15364;DHT22;7781;49.690;6.472;2022-09-17T11:57:31;16.60;1.00
15364;DHT22;7781;49.690;6.472;2022-09-17T12:00:03;16.50;1.00
15364;DHT22;7781;49.690;6.472;2022-09-17T12:02:47;16.40;1.00
15364;DHT22;7781;49.690;6.472;2022-09-17T12:05:20;16.50;1.00
15364;DHT22;7781;49.690;6.472;2022-09-17T12:07:53;16.70;1.00
15364;DHT22;7781;49.690;6.472;2022-09-17T12:10:42;16.60;1.00
15364;DHT22;7781;49.690;6.472;2022-09-17T12:13:27;16.40;1.00
15364;DHT22;7781;49.690;6.472;2022-09-17T12:16:08;16.10;1.00
15364;DHT22;7781;49.690;6.472;2022-09-17T12:18:45;16.10;1.00
15364;DHT22;7781;49.690;6.472;2022-09-17T12:21:18;16.20;1.00
15364;DHT22;7781;49.690;6.472;2022-09-17T12:23:51;16.00;1.00
15364;DHT22;7781;49.690;6.472;2022-09-17T12:26:39;15.90;1.00
15364;DHT22;7781;49.690;6.472;2022-09-17T12:29:22;15.90;1.00
15364;DHT22;7781;49.690;6.472;2022-09-17T12:31:59;15.90;1.00
15364;DHT22;7781;49.690;6.472;2022-09-17T12:34:39;15.80;1.00
15364;DHT22;7781;49.690;6.472;2022-09-17T12:37:16;16.20;1.00
15364;DHT22;7781;49.690;6.472;2022-09-17T12:40:05;16.80;1.00
15364;DHT22;7781;49.690;6.472;2022-09-17T12:42:56;17.10;1.00
15364;DHT22;7781;49.690;6.472;2022-09-17T12:45:42;17.40;1.00
15364;DHT22;7781;49.690;6.472;2022-09-17T12:51:36;17.60;1.00
15364;DHT22;7781;49.690;6.472;2022-09-17T12:54:15;17.70;1.00
15364;DHT22;7781;49.690;6.472;2022-09-17T12:56:54;17.40;1.00
15364;DHT22;7781;49.690;6.472;2022-09-17T12:59:28;17.10;1.00
15364;DHT22;7781;49.690;6.472;2022-09-17T13:02:02;16.90;1.00
15364;DHT22;7781;49.690;6.472;2022-09-17T13:07:59;16.80;1.00
15364;DHT22;7781;49.690;6.472;2022-09-17T13:10:40;16.80;1.00
15364;DHT22;7781;49.690;6.472;2022-09-17T13:13:25;16.80;1.00
15364;DHT22;7781;49.690;6.472;2022-09-17T13:16:00;17.00;1.00
15364;DHT22;7781;49.690;6.472;2022-09-17T13:18:50;16.90;1.00
15364;DHT22;7781;49.690;6.472;2022-09-17T13:21:47;16.70;1.00
15364;DHT22;7781;49.690;6.472;2022-09-17T13:24:20;16.50;1.00
15364;DHT22;7781;49.690;6.472;2022-09-17T13:26:51;16.30;1.00
15364;DHT22;7781;49.690;6.472;2022-09-17T13:29:57;16.00;1.00
15364;DHT22;7781;49.690;6.472;2022-09-17T13:32:45;15.80;1.00
15364;DHT22;7781;49.690;6.472;2022-09-17T13:35:49;15.60;1.00
15364;DHT22;7781;49.690;6.472;2022-09-17T13:38:18;15.40;1.00
15364;DHT22;7781;49.690;6.472;2022-09-17T13:40:50;15.40;1.00
15364;DHT22;7781;49.690;6.472;2022-09-17T13:43:20;15.30;1.00
15364;DHT22;7781;49.690;6.472;2022-09-17T13:46:07;15.20;1.00
15364;DHT22;7781;49.690;6.472;2022-09-17T13:48:46;15.30;1.00
15364;DHT22;7781;49.690;6.472;2022-09-17T13:51:51;15.10;1.00
15364;DHT22;7781;49.690;6.472;2022-09-17T13:54:21;15.00;1.00
15364;DHT22;7781;49.690;6.472;2022-09-17T13:57:03;14.90;1.00
15364;DHT22;7781;49.690;6.472;2022-09-17T13:59:34;15.00;1.00
15364;DHT22;7781;49.690;6.472;2022-09-17T14:02:29;14.90;1.00
15364;DHT22;7781;49.690;6.472;2022-09-17T14:05:22;14.90;1.00
15364;DHT22;7781;49.690;6.472;2022-09-17T14:08:24;15.00;1.00
15364;DHT22;7781;49.690;6.472;2022-09-17T14:10:58;14.90;1.00
15364;DHT22;7781;49.690;6.472;2022-09-17T14:13:43;14.90;1.00
15364;DHT22;7781;49.690;6.472;2022-09-17T14:16:31;14.90;1.00
15364;DHT22;7781;49.690;6.472;2022-09-17T14:19:16;15.00;1.00
15364;DHT22;7781;49.690;6.472;2022-09-17T14:21:57;15.00;1.00
15364;DHT22;7781;49.690;6.472;2022-09-17T14:24:34;15.00;1.00
15364;DHT22;7781;49.690;6.472;2022-09-17T14:27:10;14.90;1.00
15364;DHT22;7781;49.690;6.472;2022-09-17T14:32:43;15.10;1.00
15364;DHT22;7781;49.690;6.472;2022-09-17T14:35:16;15.20;1.00
15364;DHT22;7781;49.690;6.472;2022-09-17T14:37:51;15.10;1.00
15364;DHT22;7781;49.690;6.472;2022-09-17T14:40:23;15.00;1.00
15364;DHT22;7781;49.690;6.472;2022-09-17T14:42:54;14.80;1.00
15364;DHT22;7781;49.690;6.472;2022-09-17T14:45:28;14.70;1.00
15364;DHT22;7781;49.690;6.472;2022-09-17T14:48:27;14.60;1.00
15364;DHT22;7781;49.690;6.472;2022-09-17T14:51:25;14.50;1.00
15364;DHT22;7781;49.690;6.472;2022-09-17T14:54:10;14.20;1.00
15364;DHT22;7781;49.690;6.472;2022-09-17T14:56:47;14.10;1.00
15364;DHT22;7781;49.690;6.472;2022-09-17T14:59:21;14.00;5.80
15364;DHT22;7781;49.690;6.472;2022-09-17T15:01:50;14.00;5.90
15364;DHT22;7781;49.690;6.472;2022-09-17T15:04:23;14.00;7.20
15364;DHT22;7781;49.690;6.472;2022-09-17T15:06:52;14.50;3.70
15364;DHT22;7781;49.690;6.472;2022-09-17T15:09:23;15.20;3.60
15364;DHT22;7781;49.690;6.472;2022-09-17T15:11:54;15.80;1.00
15364;DHT22;7781;49.690;6.472;2022-09-17T15:14:27;15.90;1.00
15364;DHT22;7781;49.690;6.472;2022-09-17T15:16:57;15.90;1.00
15364;DHT22;7781;49.690;6.472;2022-09-17T15:19:28;15.60;1.00
15364;DHT22;7781;49.690;6.472;2022-09-17T15:22:03;15.60;1.00
15364;DHT22;7781;49.690;6.472;2022-09-17T15:24:37;15.40;1.00
15364;DHT22;7781;49.690;6.472;2022-09-17T15:27:12;15.40;1.00
15364;DHT22;7781;49.690;6.472;2022-09-17T15:29:45;15.60;1.00
15364;DHT22;7781;49.690;6.472;2022-09-17T15:32:14;15.60;1.00
15364;DHT22;7781;49.690;6.472;2022-09-17T15:34:42;15.70;1.00
15364;DHT22;7781;49.690;6.472;2022-09-17T15:37:18;15.60;1.00
15364;DHT22;7781;49.690;6.472;2022-09-17T15:39:48;15.50;1.00
15364;DHT22;7781;49.690;6.472;2022-09-17T15:42:21;15.50;1.00
15364;DHT22;7781;49.690;6.472;2022-09-17T15:44:50;15.60;1.00
15364;DHT22;7781;49.690;6.472;2022-09-17T15:47:50;15.60;1.00
15364;DHT22;7781;49.690;6.472;2022-09-17T15:50:20;15.40;1.00
15364;DHT22;7781;49.690;6.472;2022-09-17T15:52:50;15.20;1.00
15364;DHT22;7781;49.690;6.472;2022-09-17T15:55:29;15.10;1.00
15364;DHT22;7781;49.690;6.472;2022-09-17T15:57:59;15.20;1.00
15364;DHT22;7781;49.690;6.472;2022-09-17T16:00:27;14.90;1.00
15364;DHT22;7781;49.690;6.472;2022-09-17T16:02:57;14.90;1.00
15364;DHT22;7781;49.690;6.472;2022-09-17T16:05:49;14.90;1.00
15364;DHT22;7781;49.690;6.472;2022-09-17T16:08:23;14.80;1.00
15364;DHT22;7781;49.690;6.472;2022-09-17T16:10:51;14.70;1.00
15364;DHT22;7781;49.690;6.472;2022-09-17T16:13:20;14.60;1.00
15364;DHT22;7781;49.690;6.472;2022-09-17T16:15:54;14.70;3.40
15364;DHT22;7781;49.690;6.472;2022-09-17T16:18:22;14.80;2.80
15364;DHT22;7781;49.690;6.472;2022-09-17T16:20:50;14.80;2.40
15364;DHT22;7781;49.690;6.472;2022-09-17T16:23:18;14.80;3.80
15364;DHT22;7781;49.690;6.472;2022-09-17T16:25:46;14.60;4.10
15364;DHT22;7781;49.690;6.472;2022-09-17T16:28:18;14.50;5.50
15364;DHT22;7781;49.690;6.472;2022-09-17T16:30:48;14.30;7.20
15364;DHT22;7781;49.690;6.472;2022-09-17T16:33:17;14.20;10.90
15364;DHT22;7781;49.690;6.472;2022-09-17T16:35:45;14.10;17.50
15364;DHT22;7781;49.690;6.472;2022-09-17T16:38:14;13.90;23.40
15364;DHT22;7781;49.690;6.472;2022-09-17T16:40:43;13.90;42.00
15364;DHT22;7781;49.690;6.472;2022-09-17T16:43:13;13.70;53.20
15364;DHT22;7781;49.690;6.472;2022-09-17T16:45:41;13.50;61.20
15364;DHT22;7781;49.690;6.472;2022-09-17T16:48:10;13.30;69.40
15364;DHT22;7781;49.690;6.472;2022-09-17T16:50:39;13.20;76.80
15364;DHT22;7781;49.690;6.472;2022-09-17T16:53:07;13.10;84.00
15364;DHT22;7781;49.690;6.472;2022-09-17T16:55:35;13.10;81.80